Time;durP1;ratioP1;P1;durP2;ratioP2;P2;SDS_P1;SDS_P2;PMS_P1;PMS_P2;Temp;Humidity;BMP_temperature;BMP_pressure;BME280_temperature;BME280_humidity;BME280_pressure;Samples;Min_cycle;Max_cycle;Signal;HPM_P1;HPM_P2
2022/03/14 00:00:28;;;;;;;0.38;0.38;;;1.30;99.90;;;;;;5271236;28;20039;-78
2022/03/14 00:03:02;;;;;;;0.60;0.60;;;1.20;99.90;;;;;;5256480;28;20021;-80
2022/03/14 00:05:37;;;;;;;0.52;0.52;;;1.20;99.90;;;;;;5210596;28;20045;-77
2022/03/14 00:08:13;;;;;;;0.80;0.80;;;1.20;99.90;;;;;;5257775;28;20215;-80
2022/03/14 00:10:51;;;;;;;0.70;0.70;;;1.10;99.90;;;;;;5257390;28;20053;-79
2022/03/14 00:13:26;;;;;;;0.50;0.50;;;0.90;99.90;;;;;;5233930;28;20031;-80
2022/03/14 00:16:00;;;;;;;0.80;0.80;;;1.00;99.90;;;;;;5222376;28;20036;-80
2022/03/14 00:18:40;;;;;;;0.35;0.35;;;0.90;99.90;;;;;;5250963;28;20016;-78
2022/03/14 00:21:19;;;;;;;0.57;0.57;;;0.90;99.90;;;;;;5231268;28;20215;-78
2022/03/14 00:24:02;;;;;;;1.30;1.30;;;1.00;99.90;;;;;;5250328;28;20040;-79
2022/03/14 00:26:34;;;;;;;0.50;0.50;;;1.20;99.90;;;;;;5252997;28;20580;-77
2022/03/14 00:29:07;;;;;;;0.50;0.50;;;1.40;99.90;;;;;;5218065;28;20047;-79
2022/03/14 00:31:47;;;;;;;0.50;0.50;;;1.80;99.90;;;;;;5232945;28;20071;-79
2022/03/14 00:34:21;;;;;;;1.13;1.13;;;2.00;99.90;;;;;;5250198;28;20390;-77
2022/03/14 00:36:55;;;;;;;0.88;0.88;;;2.10;99.80;;;;;;5225893;28;20035;-76
2022/03/14 00:39:32;;;;;;;1.02;1.02;;;2.10;99.70;;;;;;5222918;28;20032;-78
2022/03/14 00:42:04;;;;;;;0.93;0.93;;;2.20;99.30;;;;;;5266277;28;20040;-77
2022/03/14 00:44:42;;;;;;;0.82;0.82;;;2.30;99.30;;;;;;5243784;28;20024;-78
2022/03/14 00:47:21;;;;;;;1.08;1.08;;;2.40;99.30;;;;;;5250144;28;20061;-76
2022/03/14 00:49:52;;;;;;;0.50;0.50;;;2.30;99.30;;;;;;5251553;28;20528;-77
2022/03/14 00:52:24;;;;;;;0.50;0.50;;;2.30;99.40;;;;;;5253583;28;20478;-77
2022/03/14 00:54:55;;;;;;;1.25;1.15;;;2.20;99.50;;;;;;5236942;28;20036;-77
2022/03/14 00:57:30;;;;;;;0.60;0.60;;;2.20;99.30;;;;;;5264632;28;20031;-77
2022/03/14 01:00:02;;;;;;;;;;;2.20;99.30;;;;;;5257416;28;20367;-77
2022/03/14 01:02:34;;;;;;;0.73;0.73;;;2.20;99.60;;;;;;5276167;28;19908;-78
2022/03/14 01:05:11;;;;;;;0.73;0.73;;;2.10;99.50;;;;;;5235033;28;20048;-76
2022/03/14 01:07:46;;;;;;;2.25;1.48;;;2.20;99.30;;;;;;5263523;28;20020;-79
2022/03/14 01:10:23;;;;;;;0.60;0.60;;;2.10;99.40;;;;;;5269295;28;20036;-76
2022/03/14 01:12:55;;;;;;;1.48;1.38;;;2.00;99.60;;;;;;5253807;28;20036;-79
2022/03/14 01:15:31;;;;;;;0.40;0.40;;;2.00;99.80;;;;;;5268016;28;20387;-78
2022/03/14 01:18:04;;;;;;;0.52;0.52;;;1.90;99.90;;;;;;5234995;28;20406;-78
2022/03/14 01:20:36;;;;;;;0.60;0.60;;;1.80;99.90;;;;;;5256044;28;20035;-75
2022/03/14 01:23:12;;;;;;;0.70;0.70;;;1.70;99.90;;;;;;5246450;28;20040;-77
2022/03/14 01:25:45;;;;;;;1.88;1.77;;;1.70;99.90;;;;;;5259207;28;20046;-80
2022/03/14 01:28:23;;;;;;;0.60;0.60;;;1.70;99.90;;;;;;5260540;28;20036;-78
2022/03/14 01:30:55;;;;;;;1.17;1.13;;;1.60;99.90;;;;;;5269266;28;20582;-76
2022/03/14 01:33:29;;;;;;;0.75;0.75;;;1.50;99.90;;;;;;5265729;28;20023;-77
2022/03/14 01:36:04;;;;;;;1.13;1.13;;;1.40;99.90;;;;;;5233881;28;20229;-76
2022/03/14 01:38:39;;;;;;;1.27;1.20;;;1.40;99.90;;;;;;5218743;28;20035;-78
2022/03/14 01:41:11;;;;;;;0.65;0.65;;;1.30;99.90;;;;;;5230092;28;20036;-76
2022/03/14 01:43:49;;;;;;;1.23;1.23;;;1.30;99.90;;;;;;5237326;28;20040;-78
2022/03/14 01:46:26;;;;;;;1.05;1.05;;;1.10;99.90;;;;;;5260218;28;20378;-78
2022/03/14 01:49:00;;;;;;;0.93;0.93;;;1.10;99.90;;;;;;5240264;28;20514;-77
2022/03/14 01:51:41;;;;;;;1.20;1.20;;;1.00;99.90;;;;;;5236379;28;20016;-78
2022/03/14 01:54:18;;;;;;;0.80;0.80;;;0.90;99.90;;;;;;5228461;28;20032;-76
2022/03/14 01:56:56;;;;;;;1.88;1.77;;;0.80;99.90;;;;;;5217129;28;20042;-78
2022/03/14 01:59:29;;;;;;;0.40;0.40;;;0.80;99.90;;;;;;5249295;28;20031;-76
2022/03/14 02:02:03;;;;;;;1.38;1.38;;;0.70;99.90;;;;;;5242286;28;20153;-76
2022/03/14 02:04:37;;;;;;;0.40;0.40;;;0.80;99.90;;;;;;5256867;28;20046;-77
2022/03/14 02:07:12;;;;;;;0.50;0.50;;;0.90;99.90;;;;;;5252494;28;20036;-77
2022/03/14 02:09:49;;;;;;;1.02;1.02;;;0.90;99.90;;;;;;5247149;28;20038;-79
2022/03/14 02:12:20;;;;;;;0.90;0.90;;;0.80;99.90;;;;;;5233086;28;20054;-77
2022/03/14 02:14:52;;;;;;;0.63;0.63;;;0.80;99.90;;;;;;5269126;28;20020;-80
2022/03/14 02:17:24;;;;;;;1.05;1.05;;;0.90;99.90;;;;;;5214176;28;20024;-78
2022/03/14 02:20:07;;;;;;;0.73;0.73;;;0.90;99.90;;;;;;5257771;28;20030;-77
2022/03/14 02:26:12;;;;;;;0.60;0.60;;;1.10;99.90;;;;;;5195450;28;20161;-78
2022/03/14 02:28:46;;;;;;;0.50;0.50;;;1.30;99.90;;;;;;5164724;28;20037;-76
2022/03/14 02:31:24;;;;;;;;;;;1.40;99.90;;;;;;5163770;28;20053;-76
2022/03/14 02:34:00;;;;;;;1.63;1.52;;;1.50;99.90;;;;;;5173632;28;19948;-76
2022/03/14 02:36:40;;;;;;;0.50;0.50;;;1.40;99.90;;;;;;5170801;28;20479;-76
2022/03/14 02:39:12;;;;;;;0.70;0.70;;;1.40;99.90;;;;;;5162127;28;20044;-75
2022/03/14 02:41:47;;;;;;;0.68;0.68;;;1.30;99.90;;;;;;5171762;28;20041;-76
2022/03/14 02:44:24;;;;;;;0.75;0.75;;;1.30;99.90;;;;;;5180960;28;20063;-76
2022/03/14 02:47:04;;;;;;;0.95;0.88;;;1.30;99.90;;;;;;5185784;28;20044;-76
2022/03/14 02:49:37;;;;;;;0.32;0.32;;;1.40;99.90;;;;;;5152458;28;20091;-76
2022/03/14 02:52:11;;;;;;;0.50;0.50;;;1.30;99.90;;;;;;5181580;28;20037;-77
2022/03/14 02:54:43;;;;;;;0.50;0.50;;;1.20;99.90;;;;;;5186104;28;20025;-75
2022/03/14 02:57:19;;;;;;;2.90;2.63;;;1.20;99.90;;;;;;5184708;28;20037;-75
2022/03/14 02:59:54;;;;;;;1.10;1.10;;;1.10;99.90;;;;;;5180879;28;20371;-77
2022/03/14 03:02:25;;;;;;;0.65;0.65;;;1.10;99.90;;;;;;5203952;28;20044;-76
2022/03/14 03:04:59;;;;;;;0.85;0.85;;;1.10;99.90;;;;;;5244765;28;20036;-76
2022/03/14 03:07:35;;;;;;;0.63;0.63;;;1.10;99.90;;;;;;5249602;28;20457;-77
2022/03/14 03:10:12;;;;;;;0.70;0.70;;;1.20;99.90;;;;;;5256583;28;20035;-75
2022/03/14 03:12:44;;;;;;;0.55;0.55;;;1.10;99.90;;;;;;5232602;28;20531;-76
2022/03/14 03:15:20;;;;;;;0.70;0.70;;;1.10;99.90;;;;;;5247742;28;20036;-77
2022/03/14 03:17:55;;;;;;;0.95;0.95;;;1.10;99.90;;;;;;5247740;28;20404;-76
2022/03/14 03:20:30;;;;;;;0.50;0.50;;;1.10;99.90;;;;;;5260957;28;20446;-76
2022/03/14 03:23:07;;;;;;;0.60;0.60;;;1.10;99.90;;;;;;5262462;28;20036;-77
2022/03/14 03:25:43;;;;;;;1.17;1.17;;;1.10;99.90;;;;;;5243997;28;20044;-77
2022/03/14 03:28:17;;;;;;;0.73;0.73;;;1.10;99.90;;;;;;5243753;28;20231;-76
2022/03/14 03:30:59;;;;;;;1.80;1.70;;;1.10;99.90;;;;;;5235084;28;20062;-78
2022/03/14 03:33:30;;;;;;;0.65;0.65;;;1.10;99.90;;;;;;5252547;28;20676;-78
2022/03/14 03:36:11;;;;;;;0.32;0.32;;;1.00;99.90;;;;;;5243990;28;20515;-78
2022/03/14 03:38:43;;;;;;;0.50;0.50;;;1.00;99.90;;;;;;5245441;28;20057;-76
2022/03/14 03:41:20;;;;;;;0.60;0.60;;;0.90;99.90;;;;;;5222739;28;20035;-79
2022/03/14 03:43:51;;;;;;;0.65;0.65;;;1.00;99.90;;;;;;5243839;28;20040;-76
2022/03/14 03:46:24;;;;;;;1.73;1.73;;;1.00;99.90;;;;;;5247454;28;20047;-77
2022/03/14 03:49:01;;;;;;;0.98;0.88;;;0.90;99.90;;;;;;5254805;28;20502;-76
2022/03/14 03:51:40;;;;;;;0.40;0.40;;;1.00;99.90;;;;;;5220209;28;20048;-77
2022/03/14 03:54:14;;;;;;;0.63;0.63;;;1.00;99.90;;;;;;5244793;28;20034;-76
2022/03/14 03:56:48;;;;;;;0.80;0.80;;;1.00;99.90;;;;;;5251109;28;20025;-78
2022/03/14 03:59:23;;;;;;;0.82;0.82;;;1.00;99.90;;;;;;5237705;28;20019;-78
2022/03/14 04:01:57;;;;;;;0.63;0.63;;;0.90;99.90;;;;;;5241937;28;20039;-77
2022/03/14 04:04:37;;;;;;;0.30;0.30;;;1.00;99.90;;;;;;5252803;28;20207;-76
2022/03/14 04:07:08;;;;;;;0.80;0.80;;;0.90;99.90;;;;;;5246203;28;20572;-78
2022/03/14 04:09:42;;;;;;;0.55;0.55;;;0.80;99.90;;;;;;5242468;28;20043;-76
2022/03/14 04:12:17;;;;;;;0.80;0.80;;;0.80;99.90;;;;;;5252472;28;20022;-76
2022/03/14 04:14:48;;;;;;;;;;;0.70;99.90;;;;;;5225437;28;20024;-76
2022/03/14 04:17:20;;;;;;;1.20;1.20;;;0.60;99.90;;;;;;5234575;28;19966;-77
2022/03/14 04:19:56;;;;;;;0.50;0.50;;;0.60;99.90;;;;;;5253262;28;20036;-77
2022/03/14 04:22:32;;;;;;;1.30;1.20;;;0.60;99.90;;;;;;5245480;28;20502;-75
2022/03/14 04:25:11;;;;;;;0.52;0.52;;;0.60;99.90;;;;;;5255030;28;20032;-76
2022/03/14 04:27:47;;;;;;;0.75;0.75;;;0.60;99.90;;;;;;5202521;28;20036;-76
2022/03/14 04:30:18;;;;;;;2.78;2.45;;;0.60;99.90;;;;;;5252857;28;20520;-78
2022/03/14 04:32:52;;;;;;;0.47;0.47;;;0.50;99.90;;;;;;5254902;28;20028;-76
2022/03/14 04:35:32;;;;;;;0.40;0.40;;;0.50;99.90;;;;;;5243005;28;20503;-75
2022/03/14 04:38:06;;;;;;;0.82;0.82;;;0.30;99.90;;;;;;5256101;28;20036;-76
2022/03/14 04:40:41;;;;;;;0.70;0.70;;;0.20;99.90;;;;;;5221594;28;20040;-78
2022/03/14 04:43:17;;;;;;;0.65;0.65;;;0.30;99.90;;;;;;5197867;28;20581;-76
2022/03/14 04:45:49;;;;;;;1.20;1.20;;;0.30;99.90;;;;;;5223017;28;20067;-76
2022/03/14 04:48:25;;;;;;;0.63;0.63;;;0.20;99.90;;;;;;5209695;28;20043;-77
2022/03/14 04:50:56;;;;;;;0.68;0.68;;;0.20;99.90;;;;;;5237741;28;20358;-75
2022/03/14 04:53:32;;;;;;;0.40;0.40;;;0.20;99.90;;;;;;5250379;28;20036;-76
2022/03/14 04:56:06;;;;;;;0.70;0.70;;;0.00;99.90;;;;;;5241093;28;20037;-77
2022/03/14 04:58:43;;;;;;;2.95;2.75;;;-0.10;99.90;;;;;;5244497;28;20050;-75
2022/03/14 05:01:23;;;;;;;0.37;0.37;;;-0.20;99.90;;;;;;5254974;28;20051;-76
2022/03/14 05:03:57;;;;;;;0.30;0.30;;;-0.10;99.90;;;;;;5258667;28;20039;-75
2022/03/14 05:06:28;;;;;;;2.53;1.65;;;-0.20;99.90;;;;;;5217337;28;20116;-77
2022/03/14 05:09:05;;;;;;;1.17;1.17;;;-0.40;99.90;;;;;;5258223;28;20044;-77
2022/03/14 05:11:45;;;;;;;0.40;0.40;;;-0.40;99.90;;;;;;5255851;28;20020;-77
2022/03/14 05:14:16;;;;;;;0.73;0.73;;;-0.50;99.90;;;;;;5207634;28;20045;-76
2022/03/14 05:16:50;;;;;;;0.50;0.50;;;-0.50;99.90;;;;;;5241307;28;20029;-75
2022/03/14 05:19:27;;;;;;;0.50;0.50;;;-0.50;99.90;;;;;;5240352;28;20016;-77
2022/03/14 05:22:01;;;;;;;0.60;0.60;;;-0.40;99.90;;;;;;5231359;28;20024;-77
2022/03/14 05:24:32;;;;;;;0.50;0.50;;;-0.40;99.90;;;;;;5261961;28;20032;-76
2022/03/14 05:27:08;;;;;;;0.40;0.40;;;-0.20;99.90;;;;;;5209942;28;20040;-76
2022/03/14 05:29:39;;;;;;;0.53;0.53;;;-0.20;99.90;;;;;;5251001;28;20039;-77
2022/03/14 05:32:11;;;;;;;0.77;0.77;;;-0.20;99.90;;;;;;5239170;28;20047;-76
2022/03/14 05:34:45;;;;;;;1.13;1.13;;;0.00;99.90;;;;;;5247567;28;20039;-78
2022/03/14 05:37:17;;;;;;;0.60;0.60;;;0.00;99.90;;;;;;5266305;28;20000;-75
2022/03/14 05:39:49;;;;;;;0.52;0.52;;;0.20;99.90;;;;;;5214177;28;20024;-76
2022/03/14 05:42:21;;;;;;;0.82;0.82;;;0.40;99.90;;;;;;5242934;28;20038;-77
2022/03/14 05:44:59;;;;;;;0.50;0.50;;;0.60;99.90;;;;;;5265749;28;20455;-76
2022/03/14 05:47:32;;;;;;;0.55;0.55;;;0.70;99.90;;;;;;5220148;28;20036;-75
2022/03/14 05:50:13;;;;;;;1.30;1.30;;;0.90;99.90;;;;;;5251074;28;20040;-75
2022/03/14 05:52:44;;;;;;;0.95;0.95;;;0.90;99.90;;;;;;5233031;28;20032;-79
2022/03/14 05:55:16;;;;;;;1.30;1.30;;;1.10;99.90;;;;;;5246702;28;20028;-77
2022/03/14 05:57:56;;;;;;;0.70;0.70;;;1.20;99.90;;;;;;5252552;28;20020;-80
2022/03/14 06:00:39;;;;;;;0.98;0.98;;;1.30;99.90;;;;;;5246895;28;20040;-78
2022/03/14 06:03:15;;;;;;;2.28;2.10;;;1.40;99.90;;;;;;5268215;28;20043;-74
2022/03/14 06:05:49;;;;;;;0.45;0.45;;;1.60;99.90;;;;;;5237821;28;20066;-74
2022/03/14 06:08:23;;;;;;;0.45;0.45;;;1.70;99.90;;;;;;5260835;28;20226;-75
2022/03/14 06:10:57;;;;;;;0.98;0.98;;;1.80;99.90;;;;;;5232934;28;20024;-75
2022/03/14 06:13:31;;;;;;;0.68;0.68;;;2.00;99.90;;;;;;5242350;28;20549;-75
2022/03/14 06:16:06;;;;;;;;;;;2.10;99.90;;;;;;5253415;28;20043;-75
2022/03/14 06:18:37;;;;;;;0.60;0.60;;;2.20;99.90;;;;;;5253682;28;19906;-74
2022/03/14 06:21:10;;;;;;;0.45;0.45;;;2.40;99.90;;;;;;5235293;28;20471;-76
2022/03/14 06:23:43;;;;;;;0.90;0.90;;;2.50;99.90;;;;;;5227464;28;20110;-76
2022/03/14 06:26:18;;;;;;;0.88;0.88;;;2.60;99.90;;;;;;5241497;28;20043;-76
2022/03/14 06:28:49;;;;;;;0.70;0.70;;;2.80;99.90;;;;;;5241134;28;20039;-75
2022/03/14 06:31:23;;;;;;;0.60;0.60;;;2.90;99.90;;;;;;5244803;28;20044;-77
2022/03/14 06:33:58;;;;;;;0.50;0.50;;;3.00;99.90;;;;;;5247390;28;20036;-75
2022/03/14 06:36:32;;;;;;;1.27;1.27;;;3.10;99.90;;;;;;5240059;28;20020;-75
2022/03/14 06:39:06;;;;;;;1.58;1.48;;;3.30;99.90;;;;;;5243047;28;20044;-76
2022/03/14 06:41:44;;;;;;;1.15;1.15;;;3.50;99.90;;;;;;5232476;28;20032;-76
2022/03/14 06:44:19;;;;;;;0.57;0.57;;;3.60;99.90;;;;;;5246547;28;20074;-78
2022/03/14 06:46:52;;;;;;;0.80;0.80;;;3.70;99.90;;;;;;5245921;28;20388;-75
2022/03/14 06:49:26;;;;;;;0.50;0.50;;;3.70;99.90;;;;;;5239440;28;20040;-75
2022/03/14 06:52:00;;;;;;;1.05;1.05;;;3.90;99.90;;;;;;5263693;28;20024;-75
2022/03/14 06:54:34;;;;;;;0.95;0.95;;;4.00;99.90;;;;;;5255583;28;20030;-75
2022/03/14 06:57:07;;;;;;;0.85;0.85;;;4.30;99.90;;;;;;5256572;28;20034;-78
2022/03/14 06:59:39;;;;;;;0.60;0.60;;;4.40;99.90;;;;;;5247235;28;20096;-77
2022/03/14 07:02:13;;;;;;;1.13;1.13;;;4.50;99.90;;;;;;5233921;28;20032;-77
2022/03/14 07:04:45;;;;;;;0.90;0.90;;;4.60;99.90;;;;;;5245635;28;20126;-74
2022/03/14 07:07:18;;;;;;;1.02;1.02;;;4.80;99.90;;;;;;5240355;28;20035;-74
2022/03/14 07:09:54;;;;;;;1.02;1.02;;;5.00;99.90;;;;;;5228032;28;20040;-75
2022/03/14 07:12:26;;;;;;;1.00;1.00;;;4.80;99.90;;;;;;5244170;28;20536;-75
2022/03/14 07:14:59;;;;;;;0.75;0.75;;;4.90;99.90;;;;;;5260803;28;20046;-76
2022/03/14 07:17:31;;;;;;;1.15;1.15;;;5.10;99.90;;;;;;5224431;28;20033;-76
2022/03/14 07:20:09;;;;;;;1.63;1.58;;;5.30;99.90;;;;;;5237409;28;20229;-74
2022/03/14 07:22:57;;;;;;;0.52;0.52;;;5.50;99.90;;;;;;5245748;28;20024;-75
2022/03/14 07:25:37;;;;;;;0.90;0.90;;;5.80;99.90;;;;;;5237548;28;20024;-74
2022/03/14 07:28:19;;;;;;;0.57;0.57;;;6.10;99.90;;;;;;5227736;28;20028;-75
2022/03/14 07:30:54;;;;;;;0.70;0.70;;;6.20;99.90;;;;;;5230477;28;20016;-76
2022/03/14 07:33:31;;;;;;;;;;;6.50;99.90;;;;;;5241602;28;20024;-76
2022/03/14 07:36:05;;;;;;;0.65;0.65;;;6.40;99.90;;;;;;5240795;28;19909;-75
2022/03/14 07:38:41;;;;;;;0.63;0.63;;;6.60;99.90;;;;;;5249066;28;20016;-76
2022/03/14 07:41:21;;;;;;;1.60;1.50;;;6.40;99.90;;;;;;5229132;28;20047;-78
2022/03/14 07:44:00;;;;;;;2.45;2.25;;;6.60;99.90;;;;;;5227007;28;20024;-76
2022/03/14 07:46:34;;;;;;;0.88;0.88;;;7.20;99.90;;;;;;5241092;28;20023;-77
2022/03/14 07:49:08;;;;;;;;;;;7.60;99.90;;;;;;5256323;28;20039;-77
2022/03/14 07:51:39;;;;;;;0.70;0.70;;;7.60;99.90;;;;;;5249432;28;19942;-76
2022/03/14 07:54:14;;;;;;;0.70;0.70;;;7.50;99.90;;;;;;5246071;28;20059;-76
2022/03/14 07:56:49;;;;;;;1.20;1.20;;;7.80;99.90;;;;;;5254250;28;20044;-76
2022/03/14 07:59:21;;;;;;;0.70;0.70;;;7.90;99.90;;;;;;5248739;28;20031;-77
2022/03/14 08:01:53;;;;;;;0.80;0.80;;;8.30;99.90;;;;;;5255307;28;20026;-77
2022/03/14 08:04:31;;;;;;;0.80;0.80;;;8.20;99.90;;;;;;5229640;28;20036;-76
2022/03/14 08:07:08;;;;;;;1.15;1.15;;;8.10;99.90;;;;;;5226136;28;20047;-76
2022/03/14 08:09:41;;;;;;;0.73;0.73;;;7.70;99.90;;;;;;5266329;28;20031;-77
2022/03/14 08:12:15;;;;;;;0.80;0.80;;;7.50;99.90;;;;;;5259429;28;20022;-78
2022/03/14 08:14:50;;;;;;;;;;;7.90;99.90;;;;;;5260947;28;20032;-77
2022/03/14 08:17:25;;;;;;;1.17;1.17;;;7.70;99.90;;;;;;5208457;28;20344;-77
2022/03/14 08:19:56;;;;;;;0.70;0.70;;;7.90;99.90;;;;;;5225481;28;20044;-77
2022/03/14 08:22:30;;;;;;;1.25;1.25;;;7.90;99.90;;;;;;5236075;28;20079;-77
2022/03/14 08:25:02;;;;;;;0.90;0.90;;;8.30;99.90;;;;;;5246184;28;20012;-76
2022/03/14 08:27:34;;;;;;;1.15;1.15;;;8.60;99.90;;;;;;5249875;28;20016;-77
2022/03/14 08:30:11;;;;;;;0.90;0.90;;;9.10;99.90;;;;;;5201320;28;20043;-78
2022/03/14 08:32:51;;;;;;;1.30;1.30;;;9.20;99.90;;;;;;5241528;28;20526;-75
2022/03/14 08:35:28;;;;;;;1.30;1.30;;;8.90;99.90;;;;;;5245993;28;20454;-79
2022/03/14 08:38:02;;;;;;;0.60;0.60;;;8.60;99.90;;;;;;5243461;28;20020;-76
2022/03/14 08:40:33;;;;;;;0.80;0.80;;;9.20;99.90;;;;;;5244027;28;20024;-77
2022/03/14 08:43:05;;;;;;;1.00;1.00;;;9.60;99.90;;;;;;5248070;28;20054;-77
2022/03/14 08:45:43;;;;;;;1.48;1.38;;;9.90;99.90;;;;;;5243343;28;20023;-78
2022/03/14 08:48:22;;;;;;;0.90;0.90;;;9.60;99.90;;;;;;5228088;28;20029;-77
2022/03/14 08:50:54;;;;;;;0.60;0.60;;;10.00;99.90;;;;;;5235629;28;20192;-77
2022/03/14 08:53:27;;;;;;;0.70;0.70;;;10.20;99.90;;;;;;5245209;28;20025;-76
2022/03/14 08:56:02;;;;;;;1.13;1.13;;;9.80;99.90;;;;;;5261685;28;20034;-78
2022/03/14 08:58:38;;;;;;;0.90;0.90;;;9.90;99.90;;;;;;5258270;28;20336;-78
2022/03/14 09:01:13;;;;;;;1.05;1.05;;;10.40;99.90;;;;;;5262555;28;20016;-76
2022/03/14 09:03:50;;;;;;;1.15;1.15;;;10.90;99.90;;;;;;5259628;28;20035;-77
2022/03/14 09:06:24;;;;;;;1.38;1.27;;;11.00;99.90;;;;;;5235794;28;20041;-78
2022/03/14 09:08:56;;;;;;;;;;;11.20;99.90;;;;;;5242804;28;20046;-75
2022/03/14 09:11:32;;;;;;;0.80;0.80;;;11.30;99.90;;;;;;5234251;28;19919;-76
2022/03/14 09:14:07;;;;;;;0.90;0.90;;;11.30;99.90;;;;;;5227260;28;20269;-77
2022/03/14 09:16:39;;;;;;;0.80;0.80;;;11.40;99.90;;;;;;5226876;28;20054;-76
2022/03/14 09:19:18;;;;;;;0.85;0.85;;;11.90;99.90;;;;;;5242241;28;20020;-75
2022/03/14 09:21:51;;;;;;;0.80;0.80;;;11.20;99.90;;;;;;5260830;28;20036;-76
2022/03/14 09:24:23;;;;;;;0.82;0.82;;;11.00;99.90;;;;;;5259102;28;20524;-75
2022/03/14 09:26:59;;;;;;;0.75;0.75;;;11.30;99.90;;;;;;5244912;28;20044;-75
2022/03/14 09:29:30;;;;;;;0.88;0.88;;;10.60;99.90;;;;;;5242380;28;20471;-76
2022/03/14 09:32:05;;;;;;;0.90;0.90;;;11.40;99.90;;;;;;5232882;28;20040;-75
2022/03/14 09:34:41;;;;;;;0.90;0.90;;;11.30;99.90;;;;;;5242018;28;20055;-75
2022/03/14 09:37:13;;;;;;;5.90;1.45;;;11.30;99.90;;;;;;5244190;28;20028;-75
2022/03/14 09:39:44;;;;;;;1.42;1.42;;;11.10;99.90;;;;;;5252509;28;20023;-75
2022/03/14 09:42:17;;;;;;;0.90;0.90;;;11.20;99.90;;;;;;5240448;28;20043;-76
2022/03/14 09:44:54;;;;;;;1.52;1.42;;;12.10;99.90;;;;;;5246176;28;20044;-76
2022/03/14 09:47:27;;;;;;;0.95;0.95;;;12.90;99.90;;;;;;5245316;28;20536;-76
2022/03/14 09:50:02;;;;;;;1.40;1.40;;;12.10;99.90;;;;;;5239450;28;20024;-77
2022/03/14 09:52:40;;;;;;;1.15;1.15;;;12.60;99.90;;;;;;5248526;28;20050;-76
2022/03/14 09:55:16;;;;;;;1.05;1.05;;;12.60;99.90;;;;;;5230210;28;20852;-77
2022/03/14 09:57:53;;;;;;;1.30;1.20;;;12.60;99.90;;;;;;5234348;28;20522;-78
2022/03/14 10:00:24;;;;;;;1.05;1.05;;;12.90;99.90;;;;;;5234968;28;20028;-77
2022/03/14 10:02:56;;;;;;;0.90;0.90;;;13.40;99.90;;;;;;5229964;28;20054;-76
2022/03/14 10:05:28;;;;;;;1.10;1.10;;;14.00;99.90;;;;;;5236727;28;20052;-77
2022/03/14 10:08:06;;;;;;;1.35;1.35;;;13.90;99.90;;;;;;5230174;28;20471;-76
2022/03/14 10:10:42;;;;;;;1.52;1.40;;;14.00;99.90;;;;;;5256249;28;20069;-77
2022/03/14 10:13:15;;;;;;;2.00;1.90;;;14.70;99.90;;;;;;5255073;28;20027;-76
2022/03/14 10:15:48;;;;;;;1.13;1.13;;;14.80;99.90;;;;;;5251257;28;20046;-79
2022/03/14 10:18:24;;;;;;;0.85;0.85;;;14.60;99.90;;;;;;5253164;28;20038;-77
2022/03/14 10:21:05;;;;;;;1.05;1.05;;;15.20;99.90;;;;;;5245066;28;20028;-79
2022/03/14 10:23:43;;;;;;;0.88;0.88;;;14.60;99.90;;;;;;5246671;28;20025;-79
2022/03/14 10:26:25;;;;;;;0.80;0.80;;;15.00;99.90;;;;;;5260668;28;20094;-77
2022/03/14 10:29:03;;;;;;;0.98;0.98;;;15.90;99.90;;;;;;5228748;28;20030;-78
2022/03/14 10:31:54;;;;;;;1.55;1.52;;;16.00;99.90;;;;;;5236815;28;20032;-77
2022/03/14 10:34:26;;;;;;;1.48;1.33;;;15.40;99.90;;;;;;5263768;28;20030;-78
2022/03/14 10:37:00;;;;;;;1.60;1.60;;;15.90;99.90;;;;;;5258282;28;20023;-76
2022/03/14 10:39:37;;;;;;;0.77;0.77;;;15.70;99.90;;;;;;5237394;28;20573;-76
2022/03/14 10:42:17;;;;;;;0.77;0.77;;;14.90;99.90;;;;;;5225013;28;20039;-77
2022/03/14 10:44:55;;;;;;;1.25;1.23;;;15.00;99.90;;;;;;5213200;28;20046;-76
2022/03/14 10:47:33;;;;;;;0.80;0.80;;;16.10;99.90;;;;;;5236026;28;20030;-78
2022/03/14 10:50:08;;;;;;;1.30;1.30;;;16.90;99.90;;;;;;5209074;28;20565;-76
2022/03/14 10:52:42;;;;;;;1.05;1.05;;;18.00;99.90;;;;;;5231277;28;20032;-78
2022/03/14 10:55:18;;;;;;;0.90;0.90;;;19.40;97.40;;;;;;5240077;28;20070;-78
2022/03/14 10:57:56;;;;;;;1.20;1.05;;;18.90;97.60;;;;;;5249682;28;20020;-78
2022/03/14 11:00:58;;;;;;;1.08;1.08;;;18.10;99.40;;;;;;5234387;28;20035;-76
2022/03/14 11:03:33;;;;;;;0.70;0.70;;;18.70;99.00;;;;;;5231872;28;20267;-76
2022/03/14 11:06:11;;;;;;;1.38;1.38;;;19.30;96.80;;;;;;5214632;28;20059;-78
2022/03/14 11:08:48;;;;;;;1.08;1.08;;;20.30;95.50;;;;;;5223877;28;20376;-71
2022/03/14 11:11:23;;;;;;;4.13;0.88;;;20.30;95.70;;;;;;5265818;28;20374;-78
2022/03/14 11:13:57;;;;;;;0.82;0.82;;;20.60;94.40;;;;;;5252255;28;20028;-79
2022/03/14 11:16:30;;;;;;;;;;;20.00;95.00;;;;;;5255427;28;20028;-79
2022/03/14 11:19:04;;;;;;;1.15;1.15;;;21.20;95.00;;;;;;5246674;28;19908;-77
2022/03/14 11:21:36;;;;;;;0.98;0.98;;;21.40;94.00;;;;;;5240878;28;20055;-78
2022/03/14 11:24:11;;;;;;;0.98;0.95;;;20.00;93.80;;;;;;5235252;28;20031;-78
2022/03/14 11:26:47;;;;;;;0.80;0.80;;;19.50;94.60;;;;;;5265452;28;20040;-78
2022/03/14 11:29:26;;;;;;;0.73;0.73;;;20.90;94.10;;;;;;5227736;28;20034;-78
2022/03/14 11:31:57;;;;;;;3.13;2.13;;;22.20;93.60;;;;;;5249834;28;20050;-77
2022/03/14 11:34:32;;;;;;;1.60;1.50;;;22.90;91.70;;;;;;5267842;28;20587;-77
2022/03/14 11:37:04;;;;;;;1.27;1.27;;;21.60;92.60;;;;;;5249025;28;20024;-78
2022/03/14 11:39:40;;;;;;;5.53;2.20;;;21.60;92.70;;;;;;5251795;28;20028;-79
2022/03/14 11:42:18;;;;;;;2.00;1.90;;;21.30;92.90;;;;;;5228157;28;20036;-78
2022/03/14 11:44:50;;;;;;;0.80;0.80;;;19.40;93.50;;;;;;5238398;28;20025;-79
2022/03/14 11:47:23;;;;;;;0.95;0.95;;;19.60;94.20;;;;;;5266790;28;20028;-79
2022/03/14 11:49:56;;;;;;;1.10;1.10;;;19.80;92.80;;;;;;5251134;28;20035;-79
2022/03/14 11:52:44;;;;;;;2.15;1.48;;;20.40;93.30;;;;;;5257237;28;20028;-77
2022/03/14 11:55:28;;;;;;;1.40;1.33;;;21.40;92.40;;;;;;5250070;28;20562;-77
2022/03/14 11:58:04;;;;;;;2.30;1.10;;;21.80;91.50;;;;;;5272222;28;20016;-77
2022/03/14 12:00:40;;;;;;;1.45;1.45;;;22.10;92.30;;;;;;5224737;28;20036;-77
2022/03/14 12:03:37;;;;;;;2.22;2.03;;;23.50;90.60;;;;;;5267676;28;20032;-78
2022/03/14 12:06:08;;;;;;;1.88;1.73;;;24.30;90.00;;;;;;5240461;28;20494;-78
2022/03/14 12:08:49;;;;;;;1.73;1.52;;;23.60;90.30;;;;;;5252644;28;20051;-77
2022/03/14 12:11:37;;;;;;;2.13;2.03;;;21.50;90.70;;;;;;5269426;28;20030;-78
2022/03/14 12:14:11;;;;;;;0.73;0.73;;;21.20;91.20;;;;;;5225449;28;20241;-76
2022/03/14 12:16:45;;;;;;;0.80;0.80;;;22.00;91.40;;;;;;5241956;28;20013;-78
2022/03/14 12:19:33;;;;;;;1.00;0.90;;;22.80;90.70;;;;;;5242845;28;20057;-77
2022/03/14 12:22:16;;;;;;;1.35;1.27;;;23.70;89.20;;;;;;5246062;28;20040;-78
2022/03/14 12:24:49;;;;;;;1.50;1.40;;;24.40;89.50;;;;;;5230375;28;20024;-78
2022/03/14 12:27:37;;;;;;;3.08;2.03;;;25.30;88.80;;;;;;5249624;28;20028;-78
2022/03/14 12:30:20;;;;;;;1.65;1.13;;;23.30;88.30;;;;;;5198627;28;20040;-78
2022/03/14 12:32:53;;;;;;;0.55;0.55;;;22.30;89.00;;;;;;5263669;28;20027;-77
2022/03/14 12:35:34;;;;;;;0.60;0.60;;;22.50;89.10;;;;;;5241571;28;20020;-78
2022/03/14 12:38:21;;;;;;;0.73;0.73;;;22.20;90.30;;;;;;5240942;28;20035;-79
2022/03/14 12:40:56;;;;;;;1.42;1.33;;;22.80;90.20;;;;;;5245439;28;20096;-76
2022/03/14 12:43:36;;;;;;;;;;;25.00;89.90;;;;;;5251675;28;20039;-77
2022/03/14 12:46:11;;;;;;;0.60;0.60;;;25.40;86.50;;;;;;5241640;28;19912;-77
2022/03/14 12:48:52;;;;;;;4.93;2.30;;;26.40;86.00;;;;;;5228750;28;20028;-76
2022/03/14 12:51:31;;;;;;;0.98;0.82;;;25.60;85.60;;;;;;5239043;28;20028;-78
2022/03/14 12:54:05;;;;;;;7.95;0.80;;;23.10;85.80;;;;;;5254151;28;20218;-77
2022/03/14 12:56:38;;;;;;;8.50;1.52;;;23.00;87.90;;;;;;5236374;28;20066;-76
2022/03/14 12:59:12;;;;;;;1.25;1.25;;;22.20;88.80;;;;;;5260796;28;20209;-78
2022/03/14 13:01:46;;;;;;;1.60;1.30;;;23.20;90.20;;;;;;5258807;28;20050;-77
2022/03/14 13:04:17;;;;;;;2.17;1.67;;;23.60;86.90;;;;;;5238719;28;20071;-77
2022/03/14 13:06:54;;;;;;;0.85;0.85;;;22.20;88.40;;;;;;5231819;28;20033;-77
2022/03/14 13:09:32;;;;;;;1.63;1.42;;;20.90;90.10;;;;;;5242694;28;20039;-77
2022/03/14 13:12:12;;;;;;;1.67;1.58;;;20.60;91.50;;;;;;5237917;28;20032;-78
2022/03/14 13:14:44;;;;;;;0.93;0.93;;;21.70;90.00;;;;;;5232612;28;20028;-77
2022/03/14 13:17:23;;;;;;;0.80;0.80;;;21.90;90.00;;;;;;5245901;28;20031;-78
2022/03/14 13:19:58;;;;;;;1.35;1.30;;;22.30;89.90;;;;;;5251983;28;20481;-77
2022/03/14 13:22:35;;;;;;;1.58;1.48;;;20.80;90.00;;;;;;5274946;28;20036;-77
2022/03/14 13:25:07;;;;;;;0.85;0.85;;;19.80;91.00;;;;;;5258328;28;20046;-79
2022/03/14 13:27:39;;;;;;;1.08;1.08;;;19.80;91.20;;;;;;5261144;28;20036;-77
2022/03/14 13:30:14;;;;;;;1.10;1.10;;;20.80;90.70;;;;;;5235455;28;20036;-77
2022/03/14 13:32:51;;;;;;;1.30;1.20;;;20.90;91.00;;;;;;5267430;28;20028;-79
2022/03/14 13:35:26;;;;;;;1.05;1.05;;;19.30;91.30;;;;;;5253237;28;20025;-77
2022/03/14 13:38:00;;;;;;;1.27;1.23;;;20.20;91.30;;;;;;5251266;28;20030;-77
2022/03/14 13:40:43;;;;;;;1.48;1.38;;;21.30;90.80;;;;;;5258542;28;20467;-78